Time;durP1;ratioP1;P1;durP2;ratioP2;P2;SDS_P1;SDS_P2;PMS_P1;PMS_P2;Temp;Humidity;BMP_temperature;BMP_pressure;BME280_temperature;BME280_humidity;BME280_pressure;Samples;Min_cycle;Max_cycle;Signal;HPM_P1;HPM_P2
2022/12/01 00:02:03;;;;;;;17.70;12.90;;;6.40;99.90;;;;;;5020551;28;20182;-83
2022/12/01 00:04:32;;;;;;;17.17;12.73;;;6.40;99.90;;;;;;5038443;28;20419;-84
2022/12/01 00:06:57;;;;;;;20.50;13.80;;;6.40;99.90;;;;;;5004342;28;20238;-82
2022/12/01 00:12:07;;;;;;;17.83;12.80;;;6.40;99.90;;;;;;5022318;28;20178;-82
2022/12/01 00:14:33;;;;;;;15.60;12.37;;;6.50;99.90;;;;;;5020396;28;20177;-83
2022/12/01 00:16:58;;;;;;;16.20;12.63;;;6.40;99.90;;;;;;5020004;28;20185;-82
2022/12/01 00:19:27;;;;;;;16.83;12.03;;;6.40;99.90;;;;;;5020045;28;20535;-82
2022/12/01 00:21:53;;;;;;;17.15;11.02;;;6.40;99.90;;;;;;5037240;28;20183;-82
2022/12/01 00:24:19;;;;;;;19.43;13.03;;;6.40;99.90;;;;;;5003856;28;20305;-82
2022/12/01 00:26:44;;;;;;;17.50;11.90;;;6.40;99.90;;;;;;5037496;28;20416;-82
2022/12/01 00:29:10;;;;;;;15.27;11.00;;;6.40;99.90;;;;;;5020199;28;20573;-82
2022/12/01 00:31:35;;;;;;;17.90;11.93;;;6.40;99.90;;;;;;5020014;28;20182;-82
2022/12/01 00:34:01;;;;;;;14.53;11.00;;;6.40;99.90;;;;;;5020359;28;20225;-82
2022/12/01 00:36:27;;;;;;;16.30;11.33;;;6.50;99.90;;;;;;4987389;28;20178;-82
2022/12/01 00:38:55;;;;;;;17.10;12.30;;;6.50;99.90;;;;;;5019312;28;20816;-82
2022/12/01 00:41:22;;;;;;;19.25;12.70;;;6.40;99.90;;;;;;5019576;28;20179;-82
2022/12/01 00:43:48;;;;;;;23.98;11.80;;;6.40;99.90;;;;;;5036990;28;20204;-82
2022/12/01 00:46:13;;;;;;;16.30;11.67;;;6.30;99.90;;;;;;5003197;28;20217;-82
2022/12/01 00:48:41;;;;;;;19.23;12.60;;;6.40;99.90;;;;;;5019161;28;20455;-82
2022/12/01 00:51:08;;;;;;;16.73;12.00;;;6.40;99.90;;;;;;5020121;28;20183;-82
2022/12/01 00:53:34;;;;;;;20.55;14.18;;;6.40;99.90;;;;;;5037225;28;20208;-84
2022/12/01 00:55:59;;;;;;;19.90;13.63;;;6.50;99.90;;;;;;5003980;28;20188;-82
2022/12/01 00:58:25;;;;;;;17.37;12.17;;;6.50;99.90;;;;;;5003409;28;20178;-82
2022/12/01 01:00:58;;;;;;;21.27;13.90;;;6.50;99.90;;;;;;5019665;28;20188;-82
2022/12/01 01:03:24;;;;;;;21.48;13.95;;;6.50;99.90;;;;;;5019246;28;20238;-82
2022/12/01 01:05:53;;;;;;;16.77;12.18;;;6.50;99.90;;;;;;5036923;28;20192;-82
2022/12/01 01:08:18;;;;;;;19.40;13.60;;;6.40;99.90;;;;;;5037095;28;20238;-82
2022/12/01 01:10:46;;;;;;;18.30;11.67;;;6.40;99.90;;;;;;5019125;28;20181;-82
2022/12/01 01:13:12;;;;;;;19.77;13.40;;;6.50;99.90;;;;;;5019620;28;20332;-83
2022/12/01 01:15:38;;;;;;;18.80;13.40;;;6.40;99.90;;;;;;5019075;28;20215;-83
2022/12/01 01:18:05;;;;;;;20.50;14.38;;;6.50;99.90;;;;;;5002429;28;20193;-82
2022/12/01 01:20:31;;;;;;;22.50;12.63;;;6.50;99.90;;;;;;5018929;28;20264;-82
2022/12/01 01:22:57;;;;;;;22.27;12.95;;;6.50;99.90;;;;;;5036441;28;20210;-82
2022/12/01 01:25:23;;;;;;;22.77;14.77;;;6.50;99.90;;;;;;5036954;28;20187;-82
2022/12/01 01:27:49;;;;;;;20.03;14.60;;;6.50;99.90;;;;;;5002986;28;20189;-83
2022/12/01 01:30:15;;;;;;;22.40;14.60;;;6.40;99.90;;;;;;5019103;28;20428;-81
2022/12/01 01:32:40;;;;;;;21.05;14.88;;;6.50;99.90;;;;;;5036109;28;20781;-82
2022/12/01 01:35:07;;;;;;;23.93;14.93;;;6.50;99.90;;;;;;4986259;28;20190;-82
2022/12/01 01:37:32;;;;;;;29.45;18.23;;;6.50;99.90;;;;;;5018990;28;20178;-82
2022/12/01 01:39:58;;;;;;;27.17;16.00;;;6.50;99.90;;;;;;5018405;28;20181;-83
2022/12/01 01:42:23;;;;;;;23.97;16.23;;;6.50;99.90;;;;;;5001942;28;20198;-83
2022/12/01 01:44:52;;;;;;;26.80;15.77;;;6.50;99.90;;;;;;5036502;28;20284;-82
2022/12/01 01:47:21;;;;;;;31.63;16.33;;;6.60;99.90;;;;;;5017951;28;20186;-82
2022/12/01 01:49:47;;;;;;;28.15;16.92;;;6.40;99.90;;;;;;5017837;28;20190;-82
2022/12/01 01:52:13;;;;;;;27.85;17.20;;;6.40;99.90;;;;;;5002195;28;20208;-82
2022/12/01 01:54:43;;;;;;;31.63;16.73;;;6.40;99.90;;;;;;5002034;28;20188;-82
2022/12/01 01:57:13;;;;;;;29.38;16.80;;;6.40;99.90;;;;;;5036198;28;20174;-82
2022/12/01 01:59:46;;;;;;;26.75;16.27;;;6.40;99.90;;;;;;5035850;28;20235;-83
2022/12/01 02:02:12;;;;;;;31.02;17.75;;;6.50;99.90;;;;;;5035848;28;20538;-82
2022/12/01 02:04:43;;;;;;;33.05;18.70;;;6.50;99.90;;;;;;5018528;28;20215;-82
2022/12/01 02:07:10;;;;;;;30.02;17.85;;;6.50;99.90;;;;;;5035760;28;20282;-82
2022/12/01 02:09:36;;;;;;;26.42;16.70;;;6.50;99.90;;;;;;5036093;28;20181;-82
2022/12/01 02:12:33;;;;;;;26.37;16.57;;;6.50;99.90;;;;;;5001396;28;20321;-82
2022/12/01 02:15:29;;;;;;;30.33;17.23;;;6.50;99.90;;;;;;5017716;28;20174;-82
2022/12/01 02:18:17;;;;;;;31.25;18.35;;;6.40;99.90;;;;;;5017740;28;20702;-82
2022/12/01 02:21:14;;;;;;;29.65;17.08;;;6.40;99.90;;;;;;5017396;28;20262;-82
2022/12/01 02:24:17;;;;;;;34.15;16.25;;;6.30;99.90;;;;;;5017537;28;20212;-85
2022/12/01 02:26:56;;;;;;;28.15;17.88;;;6.30;99.90;;;;;;5017852;28;20196;-83
2022/12/01 02:30:03;;;;;;;27.67;16.50;;;6.40;99.90;;;;;;5036020;28;20158;-82
2022/12/01 02:32:41;;;;;;;31.65;17.90;;;6.40;99.90;;;;;;5016909;28;20194;-81
2022/12/01 02:35:13;;;;;;;30.38;17.35;;;6.40;99.90;;;;;;5035222;28;20170;-82
2022/12/01 02:37:58;;;;;;;32.65;16.88;;;6.40;99.90;;;;;;5017635;28;20216;-82
2022/12/01 02:41:01;;;;;;;30.45;17.85;;;6.40;99.90;;;;;;5035596;28;20174;-82
2022/12/01 02:43:47;;;;;;;31.33;17.42;;;6.40;99.90;;;;;;4995969;28;20217;-82
2022/12/01 02:46:28;;;;;;;29.75;18.00;;;6.30;99.90;;;;;;5035033;28;20220;-82
2022/12/01 02:48:58;;;;;;;31.95;18.20;;;6.30;99.90;;;;;;5017291;28;20189;-82
2022/12/01 02:51:28;;;;;;;31.95;18.30;;;6.30;99.90;;;;;;5035186;28;20174;-82
2022/12/01 02:53:58;;;;;;;32.72;18.13;;;6.40;99.90;;;;;;5035333;28;20173;-82
2022/12/01 02:56:24;;;;;;;29.25;16.17;;;6.30;99.90;;;;;;5018149;28;20216;-82
2022/12/01 02:58:49;;;;;;;29.27;19.07;;;6.30;99.90;;;;;;5001116;28;20193;-82
2022/12/01 03:01:42;;;;;;;28.93;17.30;;;6.20;99.90;;;;;;5001071;28;20417;-82
2022/12/01 03:04:43;;;;;;;28.30;17.35;;;6.30;99.90;;;;;;5035228;28;20209;-82
2022/12/01 03:07:26;;;;;;;34.45;18.08;;;6.30;99.90;;;;;;4954251;28;20331;-82
2022/12/01 03:10:01;;;;;;;35.80;19.77;;;6.30;99.90;;;;;;5027452;28;20261;-81
2022/12/01 03:12:36;;;;;;;31.60;17.83;;;6.30;99.90;;;;;;5017326;28;20629;-81
2022/12/01 03:15:14;;;;;;;29.95;19.88;;;6.20;99.90;;;;;;5017177;28;20588;-80
2022/12/01 03:18:06;;;;;;;33.38;18.95;;;6.20;99.90;;;;;;5017117;28;20186;-80
2022/12/01 03:20:41;;;;;;;27.98;17.98;;;6.30;99.90;;;;;;5035308;28;20178;-80
2022/12/01 03:23:11;;;;;;;26.88;15.95;;;6.30;99.90;;;;;;5034452;28;20207;-80
2022/12/01 03:25:41;;;;;;;31.58;18.98;;;6.30;99.90;;;;;;5034953;28;20179;-81
2022/12/01 03:28:10;;;;;;;27.98;17.58;;;6.30;99.90;;;;;;5016922;28;20181;-81
2022/12/01 03:30:36;;;;;;;24.88;15.70;;;6.20;99.90;;;;;;5035171;28;20209;-81
2022/12/01 03:33:18;;;;;;;29.05;16.73;;;6.30;99.90;;;;;;5017247;28;20186;-80
2022/12/01 03:35:54;;;;;;;27.77;16.95;;;6.30;99.90;;;;;;5034702;28;20638;-82
2022/12/01 03:38:24;;;;;;;26.77;17.70;;;6.20;99.90;;;;;;5017227;28;20177;-81
2022/12/01 03:40:55;;;;;;;32.88;18.02;;;6.30;99.90;;;;;;5034507;28;20181;-85
2022/12/01 03:43:27;;;;;;;28.80;17.42;;;6.20;99.90;;;;;;5017389;28;20201;-80
2022/12/01 03:46:16;;;;;;;29.60;17.30;;;6.20;99.90;;;;;;5034946;28;20644;-80
2022/12/01 03:48:42;;;;;;;27.20;17.75;;;6.10;99.90;;;;;;5034552;28;20194;-82
2022/12/01 03:51:11;;;;;;;35.88;19.20;;;6.20;99.90;;;;;;5000987;28;20184;-81
2022/12/01 03:53:53;;;;;;;28.42;19.02;;;6.20;99.90;;;;;;5034871;28;20182;-81
2022/12/01 03:56:22;;;;;;;37.75;20.08;;;6.10;99.90;;;;;;5034524;28;20161;-81
2022/12/01 03:58:51;;;;;;;34.15;19.27;;;6.00;99.90;;;;;;5034604;28;20665;-82
2022/12/01 04:01:18;;;;;;;40.33;21.33;;;6.00;99.90;;;;;;5034918;28;20175;-81
2022/12/01 04:03:45;;;;;;;33.38;20.27;;;6.00;99.90;;;;;;5034319;28;20211;-81
2022/12/01 04:06:11;;;;;;;32.03;20.10;;;6.10;99.90;;;;;;5034168;28;20174;-82
2022/12/01 04:08:37;;;;;;;40.63;21.47;;;6.00;99.90;;;;;;5034790;28;20552;-81
2022/12/01 04:12:28;;;;;;;37.75;21.05;;;6.10;99.90;;;;;;5016597;28;20269;-81
2022/12/01 04:13:48;;;;;;;41.20;20.20;;;6.00;99.90;;;;;;5036275;28;20209;-82
2022/12/01 04:16:13;;;;;;;40.23;22.70;;;6.00;99.90;;;;;;5020222;28;20174;-82
2022/12/01 04:18:39;;;;;;;48.53;21.07;;;6.00;99.90;;;;;;5003368;28;20200;-82
2022/12/01 04:21:05;;;;;;;41.67;21.47;;;6.00;99.90;;;;;;5037826;28;20189;-82
2022/12/01 04:26:31;;;;;;;47.15;23.27;;;6.00;99.90;;;;;;5004136;28;20646;-82
2022/12/01 04:28:58;;;;;;;47.90;24.85;;;6.10;99.90;;;;;;5003392;28;20657;-82
2022/12/01 04:31:23;;;;;;;41.83;20.88;;;6.00;99.90;;;;;;5037719;28;20190;-82
2022/12/01 04:33:49;;;;;;;37.63;22.60;;;6.00;99.90;;;;;;5037771;28;20184;-82
2022/12/01 04:36:15;;;;;;;45.53;22.27;;;6.00;99.90;;;;;;5037478;28;20181;-82
2022/12/01 04:38:40;;;;;;;50.77;26.10;;;6.10;99.90;;;;;;5019580;28;20180;-82
2022/12/01 04:41:10;;;;;;;36.80;21.40;;;6.00;99.90;;;;;;5019836;28;20252;-82
2022/12/01 04:43:36;;;;;;;47.00;23.60;;;6.00;99.90;;;;;;5037214;28;20605;-82
2022/12/01 04:46:03;;;;;;;44.67;22.73;;;6.00;99.90;;;;;;5037660;28;20176;-82
2022/12/01 04:48:28;;;;;;;51.80;25.55;;;6.00;99.90;;;;;;5037390;28;20178;-81
2022/12/01 04:50:54;;;;;;;39.83;20.20;;;6.00;99.90;;;;;;5003183;28;20272;-81
2022/12/01 04:53:20;;;;;;;43.03;23.97;;;6.00;99.90;;;;;;5037775;28;20189;-81
2022/12/01 04:55:45;;;;;;;45.40;22.03;;;6.00;99.90;;;;;;5019548;28;20238;-82
2022/12/01 04:58:11;;;;;;;47.87;22.27;;;6.00;99.90;;;;;;5002911;28;20190;-82
2022/12/01 05:00:36;;;;;;;43.67;22.20;;;6.00;99.90;;;;;;5036956;28;20180;-82
2022/12/01 05:03:03;;;;;;;42.53;21.53;;;6.00;99.90;;;;;;5002631;28;20223;-82
2022/12/01 05:05:29;;;;;;;38.65;19.60;;;6.00;99.90;;;;;;5037511;28;20253;-82
2022/12/01 05:07:54;;;;;;;47.07;21.80;;;6.00;99.90;;;;;;5037317;28;20320;-83
2022/12/01 05:10:20;;;;;;;45.27;20.50;;;6.00;99.90;;;;;;5037118;28;20791;-82
2022/12/01 05:12:46;;;;;;;43.03;20.50;;;5.90;99.90;;;;;;5019594;28;20678;-82
2022/12/01 05:15:12;;;;;;;37.87;20.37;;;5.90;99.90;;;;;;5003296;28;20436;-82
2022/12/01 05:17:38;;;;;;;43.63;21.27;;;6.00;99.90;;;;;;5019042;28;20190;-82
2022/12/01 05:22:56;;;;;;;39.60;21.73;;;6.00;99.90;;;;;;5022055;28;20461;-82
2022/12/01 05:25:21;;;;;;;44.85;23.55;;;5.90;99.90;;;;;;5035813;28;20170;-82
2022/12/01 05:27:47;;;;;;;39.03;21.20;;;5.90;99.90;;;;;;5018910;28;20653;-82
2022/12/01 05:30:13;;;;;;;49.60;24.87;;;5.90;99.90;;;;;;5036726;28;20229;-82
2022/12/01 05:32:38;;;;;;;47.93;21.73;;;5.90;99.90;;;;;;5018614;28;20190;-80
2022/12/01 05:35:04;;;;;;;45.70;24.83;;;5.90;99.90;;;;;;5036862;28;20182;-82
2022/12/01 05:37:33;;;;;;;48.63;24.40;;;5.90;99.90;;;;;;5036735;28;20206;-83
2022/12/01 05:39:59;;;;;;;49.38;25.20;;;5.90;99.90;;;;;;5019032;28;20275;-83
2022/12/01 05:42:25;;;;;;;53.30;24.30;;;5.90;99.90;;;;;;5036292;28;20205;-82
2022/12/01 05:44:51;;;;;;;39.63;21.77;;;5.90;99.90;;;;;;5036375;28;20182;-82
2022/12/01 05:47:16;;;;;;;51.73;24.97;;;5.80;99.90;;;;;;5036490;28;20181;-82
2022/12/01 05:49:42;;;;;;;53.23;25.30;;;5.80;99.90;;;;;;5018989;28;20657;-82
2022/12/01 05:52:08;;;;;;;48.20;24.90;;;5.80;99.90;;;;;;5036695;28;20233;-82
2022/12/01 05:54:33;;;;;;;58.60;25.87;;;5.80;99.90;;;;;;5018737;28;20192;-82
2022/12/01 05:57:04;;;;;;;50.70;24.83;;;5.90;99.90;;;;;;5036794;28;20534;-82
2022/12/01 05:59:33;;;;;;;47.20;24.05;;;5.90;99.90;;;;;;5018991;28;20284;-82
2022/12/01 06:01:58;;;;;;;45.20;22.35;;;5.90;99.90;;;;;;5002945;28;20210;-83
2022/12/01 06:04:24;;;;;;;45.33;22.70;;;5.90;99.90;;;;;;5002061;28;20240;-82
2022/12/01 06:06:52;;;;;;;39.13;21.13;;;5.90;99.90;;;;;;5036182;28;20208;-82
2022/12/01 06:09:19;;;;;;;37.90;22.02;;;5.90;99.90;;;;;;5035964;28;20230;-82
2022/12/01 06:11:44;;;;;;;45.47;22.30;;;5.90;99.90;;;;;;5018793;28;20200;-83
2022/12/01 06:14:10;;;;;;;44.33;21.50;;;5.90;99.90;;;;;;5018900;28;20259;-82
2022/12/01 06:16:36;;;;;;;39.60;21.80;;;5.90;99.90;;;;;;5002500;28;20184;-83
2022/12/01 06:19:01;;;;;;;42.60;20.90;;;5.90;99.90;;;;;;5035899;28;20277;-82
2022/12/01 06:21:27;;;;;;;40.03;22.10;;;5.90;99.90;;;;;;5002065;28;20185;-83
2022/12/01 06:23:53;;;;;;;44.60;22.50;;;5.90;99.90;;;;;;5018290;28;20651;-83
2022/12/01 06:26:19;;;;;;;37.20;23.15;;;5.90;99.90;;;;;;5018573;28;20181;-83
2022/12/01 06:28:44;;;;;;;40.63;20.53;;;5.90;99.90;;;;;;5018400;28;20292;-82
2022/12/01 06:31:10;;;;;;;33.30;19.57;;;5.90;99.90;;;;;;5002055;28;20331;-82
2022/12/01 06:33:35;;;;;;;34.47;19.47;;;5.90;99.90;;;;;;5002314;28;20182;-83
2022/12/01 06:36:03;;;;;;;32.73;17.93;;;5.90;99.90;;;;;;5035597;28;20224;-83
2022/12/01 06:38:30;;;;;;;34.78;18.88;;;5.90;99.90;;;;;;5035918;28;20174;-82
2022/12/01 06:40:56;;;;;;;36.20;18.70;;;5.90;99.90;;;;;;5017984;28;20178;-83
2022/12/01 06:43:22;;;;;;;39.80;19.47;;;5.90;99.90;;;;;;5018140;28;20214;-83
2022/12/01 06:45:47;;;;;;;32.00;16.63;;;5.80;99.90;;;;;;5035363;28;20185;-83
2022/12/01 06:48:14;;;;;;;32.97;16.63;;;5.90;99.90;;;;;;5035645;28;20606;-83
2022/12/01 06:50:39;;;;;;;30.63;16.65;;;5.80;99.90;;;;;;5036018;28;20512;-83
2022/12/01 06:53:05;;;;;;;29.07;16.33;;;5.90;99.90;;;;;;5018410;28;20190;-83
2022/12/01 06:55:31;;;;;;;29.93;15.80;;;5.80;99.90;;;;;;5017808;28;20662;-82
2022/12/01 06:57:59;;;;;;;30.57;17.57;;;5.80;99.90;;;;;;5001372;28;20184;-83
2022/12/01 07:00:25;;;;;;;28.00;17.55;;;5.90;99.90;;;;;;5001359;28;20202;-82
2022/12/01 07:02:51;;;;;;;27.80;17.37;;;5.80;99.90;;;;;;5017420;28;20209;-82
2022/12/01 07:05:16;;;;;;;29.60;17.70;;;5.80;99.90;;;;;;5017590;28;20448;-82
2022/12/01 07:07:42;;;;;;;30.87;17.77;;;5.70;99.90;;;;;;4984890;28;20666;-82
2022/12/01 07:10:10;;;;;;;30.10;18.50;;;5.70;99.90;;;;;;5017516;28;20189;-83
2022/12/01 07:12:36;;;;;;;34.58;19.75;;;5.70;99.90;;;;;;5034981;28;20182;-82
2022/12/01 07:15:04;;;;;;;30.87;18.00;;;5.70;99.90;;;;;;5035403;28;20281;-83
2022/12/01 07:17:29;;;;;;;28.85;17.35;;;5.70;99.90;;;;;;5017289;28;20425;-83
2022/12/01 07:19:55;;;;;;;27.30;17.03;;;5.70;99.90;;;;;;5035385;28;20185;-83
2022/12/01 07:22:21;;;;;;;31.83;18.03;;;5.70;99.90;;;;;;5017445;28;20655;-83
2022/12/01 07:24:46;;;;;;;29.73;18.80;;;5.70;99.90;;;;;;5035176;28;20193;-82
2022/12/01 07:27:12;;;;;;;30.80;18.03;;;5.70;99.90;;;;;;5001421;28;20189;-83
2022/12/01 07:29:37;;;;;;;28.47;18.13;;;5.70;99.90;;;;;;5035007;28;20186;-83
2022/12/01 07:32:03;;;;;;;31.27;18.87;;;5.70;99.90;;;;;;5001124;28;20184;-83
2022/12/01 07:34:28;;;;;;;27.00;19.27;;;5.80;99.90;;;;;;5016990;28;20190;-84
2022/12/01 07:36:57;;;;;;;36.33;20.73;;;5.70;99.90;;;;;;5017730;28;20185;-82
2022/12/01 07:39:23;;;;;;;35.25;24.90;;;5.80;99.90;;;;;;5017957;28;20175;-82
2022/12/01 07:41:48;;;;;;;31.23;18.17;;;5.80;99.90;;;;;;5035064;28;20581;-82
2022/12/01 07:44:14;;;;;;;30.77;19.97;;;5.70;99.90;;;;;;5017378;28;20288;-82
2022/12/01 07:46:40;;;;;;;36.40;22.60;;;5.80;99.90;;;;;;5017786;28;20236;-82
2022/12/01 07:49:06;;;;;;;34.30;22.03;;;5.80;99.90;;;;;;5003644;28;20433;-83
2022/12/01 07:51:35;;;;;;;36.17;19.88;;;5.80;99.90;;;;;;5021427;28;20182;-82
2022/12/01 07:54:03;;;;;;;28.23;17.98;;;5.80;99.90;;;;;;5020509;28;20711;-82
2022/12/01 07:56:29;;;;;;;32.75;18.90;;;5.80;99.90;;;;;;5021274;28;20281;-82
2022/12/01 07:58:54;;;;;;;33.47;19.07;;;5.80;99.90;;;;;;5022375;28;20224;-82
2022/12/01 08:01:21;;;;;;;32.80;18.60;;;5.90;99.90;;;;;;5040785;28;20523;-83
2022/12/01 08:03:49;;;;;;;33.33;18.05;;;5.80;99.90;;;;;;5058276;28;20203;-83
2022/12/01 08:06:16;;;;;;;32.38;18.52;;;5.80;99.90;;;;;;5058053;28;20627;-82
2022/12/01 08:08:41;;;;;;;30.60;19.13;;;5.90;99.90;;;;;;5057852;28;20228;-83
2022/12/01 08:11:14;;;;;;;32.93;20.10;;;5.90;99.90;;;;;;5059026;28;20177;-82
2022/12/01 08:13:40;;;;;;;34.60;20.83;;;5.90;99.90;;;;;;5041012;28;20178;-82
2022/12/01 08:16:07;;;;;;;32.55;18.77;;;6.00;99.90;;;;;;5024063;28;20256;-82
2022/12/01 08:18:34;;;;;;;36.63;19.63;;;5.90;99.90;;;;;;5040694;28;20261;-82
2022/12/01 08:21:00;;;;;;;28.55;16.52;;;5.90;99.90;;;;;;5058235;28;20234;-83
2022/12/01 08:23:26;;;;;;;33.63;19.60;;;6.00;99.90;;;;;;5058067;28;20241;-82
2022/12/01 08:25:51;;;;;;;23.30;15.07;;;6.00;99.90;;;;;;5058185;28;20197;-82
2022/12/01 08:28:17;;;;;;;30.70;16.77;;;6.00;99.90;;;;;;5023816;28;20547;-82
2022/12/01 08:30:43;;;;;;;27.67;16.90;;;6.00;99.90;;;;;;5058184;28;20176;-82
2022/12/01 08:33:09;;;;;;;36.00;20.03;;;6.10;99.90;;;;;;5040202;28;20585;-82
2022/12/01 08:35:35;;;;;;;24.73;16.73;;;6.10;99.90;;;;;;5023226;28;20862;-82
2022/12/01 08:38:01;;;;;;;28.30;16.98;;;6.10;99.90;;;;;;5057385;28;20180;-82
2022/12/01 08:40:27;;;;;;;31.93;19.53;;;6.10;99.90;;;;;;5058563;28;20185;-82
2022/12/01 08:42:52;;;;;;;29.50;17.67;;;6.00;99.90;;;;;;5040578;28;20228;-82
2022/12/01 08:45:19;;;;;;;31.40;17.23;;;6.00;99.90;;;;;;5023345;28;20192;-82
2022/12/01 08:47:44;;;;;;;29.70;17.75;;;6.10;99.90;;;;;;5039753;28;20181;-82
2022/12/01 08:50:10;;;;;;;33.83;18.00;;;6.00;99.90;;;;;;5057575;28;20173;-82
2022/12/01 08:52:36;;;;;;;26.77;17.10;;;6.10;99.90;;;;;;5039716;28;20208;-83
2022/12/01 08:55:02;;;;;;;31.60;19.13;;;6.10;99.90;;;;;;5040001;28;20183;-82
2022/12/01 08:57:29;;;;;;;29.02;18.08;;;6.10;99.90;;;;;;5040036;28;20189;-82
2022/12/01 08:59:59;;;;;;;28.80;18.85;;;6.10;99.90;;;;;;5039521;28;20192;-82
2022/12/01 09:02:25;;;;;;;29.95;18.17;;;6.10;99.90;;;;;;5022948;28;20185;-82
2022/12/01 09:04:51;;;;;;;42.97;20.20;;;6.10;99.90;;;;;;5039854;28;20192;-82
2022/12/01 09:07:18;;;;;;;31.13;19.53;;;6.10;99.90;;;;;;5038982;28;20599;-82
2022/12/01 09:09:44;;;;;;;37.38;21.98;;;6.10;99.90;;;;;;5039319;28;20333;-82
2022/12/01 09:12:11;;;;;;;34.05;20.20;;;6.00;99.90;;;;;;5039230;28;20182;-82
2022/12/01 09:14:43;;;;;;;41.83;23.13;;;6.00;99.90;;;;;;5057079;28;20213;-82
2022/12/01 09:17:08;;;;;;;39.83;21.77;;;6.00;99.90;;;;;;5057197;28;20244;-83
2022/12/01 09:19:34;;;;;;;37.60;21.73;;;6.00;99.90;;;;;;5039789;28;20181;-82
2022/12/01 09:22:00;;;;;;;37.80;21.23;;;6.10;99.90;;;;;;5022655;28;20186;-83
2022/12/01 09:24:29;;;;;;;44.72;19.15;;;6.00;99.90;;;;;;5056464;28;20207;-83
2022/12/01 09:26:57;;;;;;;37.85;21.00;;;6.10;99.90;;;;;;5057243;28;20185;-82
2022/12/01 09:29:23;;;;;;;38.20;18.95;;;6.10;99.90;;;;;;5056544;28;20257;-82
2022/12/01 09:31:49;;;;;;;38.30;20.88;;;6.20;99.90;;;;;;5039033;28;20295;-82
2022/12/01 09:34:18;;;;;;;39.10;20.97;;;6.10;99.90;;;;;;5056712;28;20212;-83
2022/12/01 09:36:45;;;;;;;37.05;19.80;;;6.20;99.90;;;;;;5039016;28;20177;-82
2022/12/01 09:39:13;;;;;;;41.88;22.08;;;6.10;99.90;;;;;;5038662;28;20186;-83
2022/12/01 09:41:44;;;;;;;37.55;20.15;;;6.10;99.90;;;;;;5038396;28;20174;-81
2022/12/01 09:44:13;;;;;;;36.22;19.30;;;6.10;99.90;;;;;;5038646;28;20300;-83
2022/12/01 09:47:20;;;;;;;45.83;21.35;;;6.10;99.90;;;;;;5039239;28;20644;-82
2022/12/01 09:49:57;;;;;;;36.55;19.60;;;6.10;99.90;;;;;;5056137;28;20190;-82
2022/12/01 09:52:26;;;;;;;35.10;20.00;;;6.20;99.90;;;;;;5038263;28;20183;-82
2022/12/01 09:54:54;;;;;;;38.50;18.73;;;6.20;99.90;;;;;;5056738;28;20232;-82
2022/12/01 09:57:32;;;;;;;31.45;18.40;;;6.20;99.90;;;;;;5057077;28;20185;-82
2022/12/01 10:00:03;;;;;;;39.70;20.60;;;6.30;99.90;;;;;;5056709;28;20230;-82
2022/12/01 10:02:34;;;;;;;32.47;18.60;;;6.20;99.90;;;;;;5038016;28;20191;-82
2022/12/01 10:05:05;;;;;;;45.15;20.70;;;6.20;99.90;;;;;;5056690;28;20200;-82
2022/12/01 10:07:35;;;;;;;37.42;19.00;;;6.20;99.90;;;;;;5056591;28;20225;-82
2022/12/01 10:10:06;;;;;;;38.97;20.30;;;6.20;99.90;;;;;;5056180;28;20165;-82
2022/12/01 10:12:34;;;;;;;33.97;17.80;;;6.10;99.90;;;;;;5055449;28;20196;-82
2022/12/01 10:15:11;;;;;;;36.22;18.65;;;6.20;99.90;;;;;;5055801;28;20180;-82
2022/12/01 10:18:02;;;;;;;35.15;18.83;;;6.20;99.90;;;;;;5038052;28;20196;-82
2022/12/01 10:21:09;;;;;;;40.30;20.08;;;6.10;99.90;;;;;;5037803;28;20177;-82
2022/12/01 10:23:54;;;;;;;40.42;19.52;;;6.10;99.90;;;;;;5008602;28;20324;-82
2022/12/01 10:26:28;;;;;;;42.05;20.98;;;6.10;99.90;;;;;;5055868;28;20246;-82
2022/12/01 10:29:22;;;;;;;36.70;19.00;;;6.20;99.90;;;;;;5055860;28;20191;-82
2022/12/01 10:31:59;;;;;;;36.83;19.42;;;6.20;99.90;;;;;;5056033;28;20225;-82
2022/12/01 10:34:32;;;;;;;40.53;21.13;;;6.20;99.90;;;;;;5037843;28;20188;-83
2022/12/01 10:36:58;;;;;;;37.28;21.58;;;6.20;99.90;;;;;;5055922;28;20185;-82
2022/12/01 10:39:42;;;;;;;46.15;20.17;;;6.10;99.90;;;;;;5036991;28;20183;-82
2022/12/01 10:42:26;;;;;;;35.70;20.70;;;6.10;99.90;;;;;;5055244;28;20196;-82
2022/12/01 10:44:55;;;;;;;34.60;18.85;;;6.10;99.90;;;;;;5055387;28;20166;-82
2022/12/01 10:47:23;;;;;;;35.95;19.98;;;6.20;99.90;;;;;;5037185;28;20187;-82
2022/12/01 10:49:49;;;;;;;39.65;19.95;;;6.20;99.90;;;;;;5037380;28;20528;-82
2022/12/01 10:52:30;;;;;;;35.08;18.10;;;6.10;99.90;;;;;;5055475;28;20181;-82
2022/12/01 10:54:55;;;;;;;34.75;19.30;;;6.10;99.90;;;;;;5051636;28;20240;-84
2022/12/01 10:57:22;;;;;;;35.20;17.37;;;6.20;99.90;;;;;;5051509;28;20193;-82
2022/12/01 11:00:05;;;;;;;31.08;18.40;;;6.30;99.90;;;;;;5037343;28;20567;-82
2022/12/01 11:02:32;;;;;;;35.05;18.83;;;6.40;99.90;;;;;;5055522;28;20181;-82
2022/12/01 11:05:19;;;;;;;30.88;17.55;;;6.40;99.90;;;;;;5037492;28;20185;-82
2022/12/01 11:07:46;;;;;;;29.63;17.85;;;6.40;99.90;;;;;;5037204;28;20746;-82
2022/12/01 11:10:22;;;;;;;28.58;16.30;;;6.50;99.90;;;;;;5055078;28;20204;-86
2022/12/01 11:13:00;;;;;;;33.13;17.63;;;6.50;99.90;;;;;;5037849;28;20184;-82
2022/12/01 11:15:33;;;;;;;32.53;17.35;;;6.60;99.90;;;;;;5055353;28;20205;-82
2022/12/01 11:18:04;;;;;;;33.88;17.60;;;6.60;99.90;;;;;;5055545;28;20240;-82
2022/12/01 11:20:39;;;;;;;30.75;17.38;;;6.60;99.90;;;;;;5037471;28;20625;-82
2022/12/01 11:23:19;;;;;;;25.60;15.55;;;6.60;99.90;;;;;;5040485;28;20560;-82
2022/12/01 11:25:59;;;;;;;23.23;14.05;;;6.60;99.90;;;;;;5059728;28;20600;-82
2022/12/01 11:28:26;;;;;;;29.85;16.83;;;6.60;99.90;;;;;;5059258;28;20591;-82
2022/12/01 11:31:04;;;;;;;25.27;15.57;;;6.50;99.90;;;;;;5041433;28;20187;-82
2022/12/01 11:33:38;;;;;;;29.85;17.20;;;6.50;99.90;;;;;;5055886;28;20174;-82
2022/12/01 11:36:04;;;;;;;27.35;14.52;;;6.50;99.90;;;;;;5047770;28;20252;-82
2022/12/01 11:38:33;;;;;;;26.95;16.02;;;6.50;99.90;;;;;;5056722;28;20648;-82
2022/12/01 11:40:59;;;;;;;28.85;15.23;;;6.40;99.90;;;;;;5024591;28;20193;-82
2022/12/01 11:43:37;;;;;;;27.37;15.47;;;6.50;99.90;;;;;;5023922;28;20702;-82
2022/12/01 11:46:07;;;;;;;27.85;16.00;;;6.50;99.90;;;;;;5041115;28;20564;-82
2022/12/01 11:48:35;;;;;;;25.15;15.60;;;6.50;99.90;;;;;;5040139;28;20192;-82
2022/12/01 11:51:25;;;;;;;24.20;15.60;;;6.50;99.90;;;;;;5040553;28;20193;-82
2022/12/01 11:54:16;;;;;;;20.33;14.70;;;6.40;99.90;;;;;;5040577;28;20529;-82
2022/12/01 11:56:43;;;;;;;27.45;15.55;;;6.50;99.90;;;;;;5040748;28;20250;-83
2022/12/01 11:59:25;;;;;;;26.40;15.45;;;6.50;99.90;;;;;;5040144;28;20188;-82
2022/12/01 12:02:18;;;;;;;31.60;18.40;;;6.50;99.90;;;;;;5040825;28;20183;-82
2022/12/01 12:05:08;;;;;;;31.60;18.98;;;6.40;99.90;;;;;;5057857;28;20207;-82
2022/12/01 12:07:37;;;;;;;29.95;15.43;;;6.40;99.90;;;;;;5039388;28;20988;-82
2022/12/01 12:10:11;;;;;;;24.92;14.25;;;6.40;99.90;;;;;;5040456;28;20173;-82
2022/12/01 12:13:17;;;;;;;24.05;15.15;;;6.40;99.90;;;;;;5039465;28;20185;-82
2022/12/01 12:15:52;;;;;;;26.85;16.73;;;6.40;99.90;;;;;;5057766;28;20641;-82
2022/12/01 12:18:50;;;;;;;28.17;16.83;;;6.40;99.90;;;;;;5053613;28;20536;-84
2022/12/01 12:21:33;;;;;;;21.17;14.35;;;6.40;99.90;;;;;;5057568;28;20158;-87
2022/12/01 12:24:28;;;;;;;22.38;14.15;;;6.50;99.90;;;;;;5057852;28;20203;-82
2022/12/01 12:27:11;;;;;;;21.00;13.45;;;6.50;99.90;;;;;;5052123;28;20192;-82
2022/12/01 12:29:45;;;;;;;23.88;15.75;;;6.60;99.90;;;;;;5039640;28;20192;-82
2022/12/01 12:32:47;;;;;;;26.02;16.50;;;6.50;99.90;;;;;;5057516;28;20172;-82
2022/12/01 12:35:15;;;;;;;23.35;14.90;;;6.50;99.90;;;;;;5039486;28;20227;-82
2022/12/01 12:38:14;;;;;;;26.77;15.80;;;6.50;99.90;;;;;;5039142;28;20184;-82
2022/12/01 12:41:04;;;;;;;25.33;16.23;;;6.50;99.90;;;;;;5057787;28;20162;-82
2022/12/01 12:43:37;;;;;;;25.50;16.40;;;6.40;99.90;;;;;;5039314;28;20213;-82
2022/12/01 12:46:13;;;;;;;24.33;15.65;;;6.50;99.90;;;;;;5057614;28;20520;-82
2022/12/01 12:49:03;;;;;;;27.23;16.42;;;6.50;99.90;;;;;;5056924;28;20181;-82
2022/12/01 12:51:45;;;;;;;23.25;15.85;;;6.50;99.90;;;;;;5057421;28;20166;-84
2022/12/01 12:54:32;;;;;;;30.52;18.05;;;6.50;99.90;;;;;;5039657;28;20248;-81
2022/12/01 12:57:26;;;;;;;29.00;17.73;;;6.60;99.90;;;;;;5058356;28;20175;-82
2022/12/01 13:00:01;;;;;;;26.35;16.90;;;6.50;99.90;;;;;;5057419;28;20180;-82
2022/12/01 13:02:48;;;;;;;27.65;17.65;;;6.50;99.90;;;;;;5039212;28;20177;-82
2022/12/01 13:05:22;;;;;;;27.30;15.77;;;6.50;99.90;;;;;;5039239;28;20215;-82